KACB/ACB METAR and TAF weather

Enter ICAO airport designator
Station Type Date Time Source
KACB METAR 2019/08/17 10:36 UTC NOAA

KACB 171036Z AUTO 22003KT 10SM BKN010 BKN014 OVC019 20/19 A2981 RMK AO2 T02030186


Station Type Date Time Source
KACB Decoded METAR 2019/08/17 10:36 UTC NOAA

Station name not available
Aug 17, 2019 - 06:36 AM EDT / 2019.08.17 1036 UTC
Wind: from the SW (220 degrees) at 3 MPH (3 KT):0
Visibility: 10 mile(s):0
Sky conditions: overcast
Temperature: 68.5 F (20.3 C)
Dew Point: 65.5 F (18.6 C)
Relative Humidity: 89%
Pressure (altimeter): 29.81 in. Hg (1009 hPa)
ob: KACB 171036Z AUTO 22003KT 10SM BKN010 BKN014 OVC019 20/19 A2981 RMK AO2 T02030186
cycle: 10

Station Type Date Time Source
KACB TAF UTC NOAA

Error!

Example: see airport list